createdAt,value
2022-10-04T00:01:02.351Z,13.40
2022-10-04T00:03:37.790Z,13.41
2022-10-04T00:06:06.974Z,13.40
2022-10-04T00:08:41.425Z,13.43
2022-10-04T00:11:13.225Z,13.39
2022-10-04T00:13:41.659Z,13.37
2022-10-04T00:16:21.161Z,13.31
2022-10-04T00:18:47.888Z,13.28
2022-10-04T00:21:16.997Z,13.25
2022-10-04T00:23:45.999Z,13.17
2022-10-04T00:26:41.033Z,13.14
2022-10-04T00:29:26.667Z,13.10
2022-10-04T00:32:27.504Z,13.07
2022-10-04T00:34:58.066Z,13.11
2022-10-04T00:37:27.266Z,13.07
2022-10-04T00:40:11.323Z,13.15
2022-10-04T00:42:55.966Z,13.14
2022-10-04T00:45:37.049Z,13.16
2022-10-04T00:48:17.808Z,13.15
2022-10-04T00:50:56.485Z,13.15
2022-10-04T00:54:06.922Z,13.14
2022-10-04T00:56:43.708Z,13.14
2022-10-04T00:59:37.200Z,13.14
2022-10-04T01:02:13.268Z,13.09
2022-10-04T01:04:42.349Z,13.06
2022-10-04T01:07:11.793Z,13.03
2022-10-04T01:09:47.242Z,13.01
2022-10-04T01:12:23.892Z,12.96
2022-10-04T01:15:07.615Z,12.91
2022-10-04T01:17:35.511Z,12.89
2022-10-04T01:20:02.764Z,12.85
2022-10-04T01:22:37.318Z,12.82
2022-10-04T01:25:04.527Z,12.82
2022-10-04T01:27:43.443Z,12.80
2022-10-04T01:30:16.280Z,12.79
2022-10-04T01:32:45.214Z,12.85
2022-10-04T01:35:14.610Z,12.87
2022-10-04T01:37:41.480Z,12.85
2022-10-04T01:40:10.139Z,12.84
2022-10-04T01:42:41.239Z,12.83
2022-10-04T01:45:33.381Z,12.89
2022-10-04T01:48:01.793Z,12.87
2022-10-04T01:50:36.109Z,12.89
2022-10-04T01:53:14.902Z,12.87
2022-10-04T01:55:47.448Z,12.79
2022-10-04T01:58:21.228Z,12.77
2022-10-04T02:00:57.115Z,12.79
2022-10-04T02:03:52.838Z,12.74
2022-10-04T02:06:21.508Z,12.44
2022-10-04T02:08:56.997Z,12.67
2022-10-04T02:11:28.413Z,12.67
2022-10-04T02:13:56.016Z,12.69
2022-10-04T02:16:24.749Z,12.69
2022-10-04T02:18:55.053Z,12.70
2022-10-04T02:21:23.485Z,12.68
2022-10-04T02:23:52.108Z,12.65
2022-10-04T02:26:18.726Z,12.57
2022-10-04T02:28:45.343Z,12.53
2022-10-04T02:31:30.737Z,12.42
2022-10-04T02:33:59.343Z,12.36
2022-10-04T02:36:30.001Z,12.30
2022-10-04T02:39:11.992Z,12.25
2022-10-04T02:41:54.698Z,12.17
2022-10-04T02:44:32.151Z,12.16
2022-10-04T02:47:15.634Z,12.12
2022-10-04T02:50:14.831Z,12.08
2022-10-04T02:52:50.473Z,12.04
2022-10-04T02:55:36.088Z,11.99
2022-10-04T02:58:08.255Z,11.98
2022-10-04T03:00:46.922Z,11.91
2022-10-04T03:03:23.555Z,11.96
2022-10-04T03:05:55.720Z,11.92
2022-10-04T03:08:22.358Z,11.89
2022-10-04T03:10:50.593Z,11.86
2022-10-04T03:13:20.169Z,11.79
2022-10-04T03:15:49.479Z,11.78
2022-10-04T03:18:20.882Z,11.73
2022-10-04T03:20:47.760Z,11.64
2022-10-04T03:23:19.908Z,11.67
2022-10-04T03:25:52.247Z,11.65
2022-10-04T03:28:19.501Z,11.58
2022-10-04T03:30:49.819Z,11.61
2022-10-04T03:33:22.730Z,11.59
2022-10-04T03:35:55.757Z,11.52
2022-10-04T03:38:24.350Z,11.34
2022-10-04T03:40:56.269Z,11.47
2022-10-04T03:43:31.877Z,11.48
2022-10-04T03:46:03.495Z,11.38
2022-10-04T03:48:46.722Z,11.43
2022-10-04T03:51:26.583Z,11.40
2022-10-04T03:53:58.863Z,11.41
2022-10-04T03:56:31.781Z,11.40
2022-10-04T03:59:04.737Z,11.39
2022-10-04T04:02:09.571Z,11.34
2022-10-04T04:05:06.150Z,11.34
2022-10-04T04:07:43.900Z,11.30
2022-10-04T04:10:23.250Z,11.31
2022-10-04T04:12:57.763Z,11.29
2022-10-04T04:15:30.543Z,11.09
2022-10-04T04:18:01.369Z,11.25
2022-10-04T04:20:36.784Z,11.23
2022-10-04T04:23:15.530Z,11.21
2022-10-04T04:25:46.805Z,11.21
2022-10-04T04:28:32.141Z,11.20
2022-10-04T04:31:04.635Z,11.19
2022-10-04T04:34:00.673Z,11.13
2022-10-04T04:36:34.481Z,11.20
2022-10-04T04:39:40.154Z,11.14
2022-10-04T04:42:21.392Z,11.21
2022-10-04T04:44:52.689Z,11.09
2022-10-04T04:47:27.410Z,11.23
2022-10-04T04:49:56.381Z,11.24
2022-10-04T04:52:28.286Z,11.23
2022-10-04T04:54:56.297Z,11.18
2022-10-04T04:57:23.263Z,11.21
2022-10-04T04:59:59.921Z,11.17
2022-10-04T05:02:30.734Z,11.11
2022-10-04T05:05:30.460Z,11.14
2022-10-04T05:08:16.011Z,11.09
2022-10-04T05:10:57.851Z,11.08
2022-10-04T05:13:40.261Z,11.07
2022-10-04T05:16:13.361Z,11.04
2022-10-04T05:18:40.260Z,11.03
2022-10-04T05:21:22.826Z,10.95
2022-10-04T05:23:49.844Z,11.01
2022-10-04T05:26:26.329Z,10.77
2022-10-04T05:28:53.584Z,10.95
2022-10-04T05:31:41.621Z,10.95
2022-10-04T05:34:19.635Z,10.85
2022-10-04T05:37:06.530Z,10.88
2022-10-04T05:39:55.414Z,10.81
2022-10-04T05:42:34.286Z,10.84
2022-10-04T05:45:01.466Z,10.84
2022-10-04T05:47:30.986Z,10.81
2022-10-04T05:50:01.009Z,10.81
2022-10-04T05:52:36.031Z,10.83
2022-10-04T05:55:17.891Z,10.86
2022-10-04T05:58:19.161Z,10.57
2022-10-04T06:01:07.613Z,10.88
2022-10-04T06:04:03.639Z,10.89
2022-10-04T06:06:58.633Z,10.88
2022-10-04T06:09:43.474Z,10.94
2022-10-04T06:12:17.369Z,10.36
2022-10-04T06:14:52.961Z,10.98
2022-10-04T06:17:29.056Z,10.98
2022-10-04T06:20:13.068Z,11.03
2022-10-04T06:22:56.488Z,11.02
2022-10-04T06:25:31.785Z,11.06
2022-10-04T06:28:18.313Z,11.16
2022-10-04T06:31:08.316Z,11.28
2022-10-04T06:33:49.143Z,11.36
2022-10-04T06:37:00.138Z,11.41
2022-10-04T06:39:32.725Z,11.49
2022-10-04T06:42:14.495Z,11.55
2022-10-04T06:45:25.405Z,11.60
2022-10-04T06:48:10.210Z,11.67
2022-10-04T06:50:47.453Z,11.76
2022-10-04T06:53:32.583Z,11.81
2022-10-04T06:56:19.700Z,11.87
2022-10-04T06:58:46.204Z,11.91
2022-10-04T07:01:22.642Z,11.96
2022-10-04T07:03:57.190Z,12.01
2022-10-04T07:06:29.241Z,11.95
2022-10-04T07:09:03.381Z,12.04
2022-10-04T07:11:43.545Z,12.06
2022-10-04T07:14:16.914Z,12.15
2022-10-04T07:16:43.370Z,12.20
2022-10-04T07:19:19.106Z,12.23
2022-10-04T07:22:13.104Z,12.24
2022-10-04T07:24:52.045Z,12.20
2022-10-04T07:27:28.869Z,12.16
2022-10-04T07:29:58.144Z,12.16
2022-10-04T07:32:34.699Z,12.20
2022-10-04T07:35:07.338Z,12.22
2022-10-04T07:37:45.576Z,12.25
2022-10-04T07:40:41.176Z,12.26
2022-10-04T07:43:14.188Z,12.29
2022-10-04T07:45:42.215Z,12.07
2022-10-04T07:48:24.831Z,12.37
2022-10-04T07:51:21.456Z,12.46
2022-10-04T07:54:12.107Z,12.82
2022-10-04T07:56:52.792Z,12.87
2022-10-04T07:59:58.640Z,12.90
2022-10-04T08:02:55.724Z,12.93
2022-10-04T08:05:36.896Z,12.98
2022-10-04T08:08:21.622Z,13.03
2022-10-04T08:11:15.035Z,13.09
2022-10-04T08:14:15.739Z,13.11
2022-10-04T08:17:00.778Z,13.14
2022-10-04T08:19:55.019Z,13.18
2022-10-04T08:22:33.803Z,13.24
2022-10-04T08:25:21.082Z,13.69
2022-10-04T08:28:09.380Z,16.02
2022-10-04T08:31:05.412Z,17.36
2022-10-04T08:33:56.905Z,18.83
2022-10-04T08:36:26.395Z,19.82
2022-10-04T08:39:18.290Z,19.39
2022-10-04T08:41:54.097Z,20.27
2022-10-04T08:44:57.137Z,20.37
2022-10-04T08:47:37.813Z,20.54
2022-10-04T08:50:35.525Z,20.62
2022-10-04T08:53:49.093Z,20.58
2022-10-04T08:56:38.639Z,20.53
2022-10-04T08:59:28.324Z,20.35
2022-10-04T09:02:10.067Z,20.26
2022-10-04T09:04:43.525Z,20.04
2022-10-04T09:07:44.073Z,19.99
2022-10-04T09:10:29.293Z,19.96
2022-10-04T09:13:17.635Z,19.76
2022-10-04T09:16:15.649Z,19.75
2022-10-04T09:19:21.789Z,19.53
2022-10-04T09:21:57.554Z,19.44
2022-10-04T09:24:49.261Z,19.50
2022-10-04T09:27:57.968Z,19.54
2022-10-04T09:30:37.620Z,19.54
2022-10-04T09:33:49.408Z,19.55
2022-10-04T09:36:25.743Z,19.49
2022-10-04T09:39:35.581Z,19.61
2022-10-04T09:42:49.976Z,19.65
2022-10-04T09:45:21.454Z,19.57
2022-10-04T09:48:16.136Z,19.51
2022-10-04T09:51:07.949Z,19.58
2022-10-04T09:53:44.432Z,19.48
2022-10-04T09:56:52.179Z,19.63
2022-10-04T09:59:37.495Z,19.66
2022-10-04T10:02:30.309Z,19.49
2022-10-04T10:05:03.244Z,19.50
2022-10-04T10:07:41.787Z,19.42
2022-10-04T10:10:54.212Z,19.38
2022-10-04T10:13:40.549Z,19.23
2022-10-04T10:16:07.139Z,19.25
2022-10-04T10:19:01.118Z,19.39
2022-10-04T10:21:30.633Z,19.60
2022-10-04T10:23:57.102Z,19.75
2022-10-04T10:26:32.131Z,19.81
2022-10-04T10:29:26.315Z,19.95
2022-10-04T10:32:10.107Z,20.16
2022-10-04T10:34:45.834Z,20.08
2022-10-04T10:37:46.390Z,20.16
2022-10-04T10:40:35.389Z,20.23
2022-10-04T10:43:25.499Z,20.35
2022-10-04T10:46:06.703Z,20.46
2022-10-04T10:48:51.905Z,20.56
2022-10-04T10:51:51.288Z,20.67
2022-10-04T10:54:17.807Z,20.64
2022-10-04T10:57:01.178Z,20.74
2022-10-04T10:59:37.133Z,20.68
2022-10-04T11:02:49.351Z,20.59
2022-10-04T11:05:29.204Z,20.70
2022-10-04T11:08:05.012Z,20.77
2022-10-04T11:11:05.580Z,20.84
2022-10-04T11:14:12.594Z,20.66
2022-10-04T11:17:20.986Z,21.00
2022-10-04T11:20:24.814Z,21.07
2022-10-04T11:23:37.212Z,21.28
2022-10-04T11:26:32.931Z,21.35
2022-10-04T11:29:40.030Z,21.49
2022-10-04T11:32:49.142Z,21.57
2022-10-04T11:35:32.292Z,21.67
2022-10-04T11:38:25.140Z,21.71
2022-10-04T11:41:11.035Z,21.75
2022-10-04T11:43:46.587Z,21.62
2022-10-04T11:46:33.777Z,21.82
2022-10-04T11:49:28.349Z,21.95
2022-10-04T11:52:02.031Z,22.04
2022-10-04T11:54:47.895Z,22.16
2022-10-04T12:02:18.622Z,22.29
2022-10-04T12:05:03.332Z,22.19
2022-10-04T12:07:48.156Z,22.11
2022-10-04T12:10:37.657Z,21.85
2022-10-04T12:13:35.096Z,21.94
2022-10-04T12:16:32.954Z,21.94
2022-10-04T12:19:32.010Z,21.96
2022-10-04T12:22:55.807Z,22.01
2022-10-04T12:25:43.873Z,22.17
2022-10-04T12:28:22.342Z,22.24
2022-10-04T12:31:15.334Z,22.31
2022-10-04T12:34:16.806Z,22.45
2022-10-04T12:36:57.925Z,22.56
2022-10-04T12:39:24.495Z,22.61
2022-10-04T12:42:08.857Z,22.70
2022-10-04T12:45:01.065Z,22.73
2022-10-04T12:47:57.099Z,22.64
2022-10-04T12:50:35.683Z,22.59
2022-10-04T12:53:31.974Z,22.45
2022-10-04T12:56:06.961Z,22.38
2022-10-04T12:58:56.019Z,22.32
2022-10-04T13:01:31.922Z,22.30
2022-10-04T13:04:05.084Z,22.30
2022-10-04T13:06:48.004Z,22.18
2022-10-04T13:09:33.013Z,22.20
2022-10-04T13:12:19.854Z,22.13
2022-10-04T13:14:56.980Z,22.11
2022-10-04T13:17:35.385Z,22.02
2022-10-04T13:20:40.131Z,21.88
2022-10-04T13:23:21.777Z,21.81
2022-10-04T13:26:03.755Z,21.74
2022-10-04T13:28:37.346Z,21.68
2022-10-04T13:31:24.609Z,21.67
2022-10-04T13:33:51.252Z,21.66
2022-10-04T13:36:47.111Z,21.58
2022-10-04T13:39:38.281Z,21.62
2022-10-04T13:42:33.716Z,21.60
2022-10-04T13:45:09.478Z,21.54
2022-10-04T13:47:56.933Z,21.45
2022-10-04T13:50:45.445Z,21.43
2022-10-04T13:54:01.333Z,21.38
2022-10-04T13:56:40.489Z,21.29
2022-10-04T13:59:22.971Z,21.22
2022-10-04T14:02:10.441Z,21.13
2022-10-04T14:04:39.910Z,21.06
2022-10-04T14:07:34.614Z,21.05
2022-10-04T14:10:19.294Z,20.99
2022-10-04T14:12:45.880Z,20.97
2022-10-04T14:15:59.105Z,20.97
2022-10-04T14:18:37.854Z,21.04
2022-10-04T14:21:19.180Z,20.94
2022-10-04T14:24:04.978Z,21.15
2022-10-04T14:26:43.999Z,21.22
2022-10-04T14:29:44.627Z,21.14
2022-10-04T14:32:28.287Z,21.24
2022-10-04T14:35:38.452Z,21.28
2022-10-04T14:38:29.676Z,21.47
2022-10-04T14:41:10.708Z,21.47
2022-10-04T14:44:28.395Z,21.42
2022-10-04T14:47:32.828Z,21.44
2022-10-04T14:50:23.954Z,21.46
2022-10-04T14:53:10.815Z,21.42
2022-10-04T14:55:56.099Z,21.33
2022-10-04T14:58:51.719Z,21.40
2022-10-04T15:01:22.890Z,21.34
2022-10-04T15:04:20.566Z,21.35
2022-10-04T15:06:55.735Z,21.35
2022-10-04T15:09:47.460Z,21.33
2022-10-04T15:15:13.577Z,21.19
2022-10-04T15:17:52.243Z,21.07
2022-10-04T15:20:51.475Z,20.96
2022-10-04T15:23:35.758Z,20.91
2022-10-04T15:26:23.362Z,20.80
2022-10-04T15:28:49.912Z,20.72
2022-10-04T15:31:33.913Z,20.66
2022-10-04T15:34:34.741Z,20.60
2022-10-04T15:37:25.922Z,20.51
2022-10-04T15:40:03.190Z,20.37
2022-10-04T15:42:33.929Z,20.33
2022-10-04T15:45:16.843Z,20.30
2022-10-04T15:48:01.373Z,20.37
2022-10-04T15:50:27.897Z,20.35
2022-10-04T15:53:10.444Z,20.18
2022-10-04T15:55:36.962Z,20.13
2022-10-04T15:58:09.637Z,20.08
2022-10-04T16:00:43.524Z,20.02
2022-10-04T16:03:13.143Z,19.96
2022-10-04T16:06:21.673Z,19.90
2022-10-04T16:08:51.254Z,19.83
2022-10-04T16:11:56.106Z,19.79
2022-10-04T16:14:37.819Z,19.76
2022-10-04T16:17:58.875Z,19.69
2022-10-04T16:20:39.007Z,19.65
2022-10-04T16:23:24.200Z,19.64
2022-10-04T16:25:59.673Z,19.53
2022-10-04T16:28:51.455Z,19.40
2022-10-04T16:31:24.877Z,19.47
2022-10-04T16:33:58.080Z,19.41
2022-10-04T16:36:47.245Z,19.30
2022-10-04T16:39:56.090Z,19.21
2022-10-04T16:42:45.510Z,19.11
2022-10-04T16:45:14.309Z,19.02
2022-10-04T16:48:13.447Z,18.94
2022-10-04T16:51:06.442Z,18.82
2022-10-04T16:53:54.189Z,18.74
2022-10-04T16:56:23.477Z,18.66
2022-10-04T16:58:50.001Z,18.57
2022-10-04T17:01:22.506Z,18.49
2022-10-04T17:04:04.693Z,18.39
2022-10-04T17:06:54.392Z,18.23
2022-10-04T17:09:32.550Z,18.21
2022-10-04T17:12:45.645Z,18.15
2022-10-04T17:15:14.930Z,18.18
2022-10-04T17:17:46.539Z,18.23
2022-10-04T17:20:31.858Z,18.25
2022-10-04T17:23:17.148Z,18.28
2022-10-04T17:26:19.186Z,18.29
2022-10-04T17:28:45.726Z,18.26
2022-10-04T17:31:19.422Z,18.22
2022-10-04T17:33:55.358Z,18.18
2022-10-04T17:36:37.629Z,18.01
2022-10-04T17:39:41.070Z,18.09
2022-10-04T17:42:16.787Z,18.05
2022-10-04T17:44:57.892Z,18.00
2022-10-04T17:47:55.251Z,17.94
2022-10-04T17:50:56.089Z,17.88
2022-10-04T17:53:48.301Z,17.79
2022-10-04T17:56:27.280Z,17.73
2022-10-04T17:58:59.379Z,17.64
2022-10-04T18:01:34.499Z,17.44
2022-10-04T18:04:28.038Z,17.72
2022-10-04T18:07:06.231Z,17.51
2022-10-04T18:09:45.319Z,17.37
2022-10-04T18:12:23.915Z,17.35
2022-10-04T18:15:15.370Z,17.27
2022-10-04T18:17:46.150Z,17.17
2022-10-04T18:20:30.863Z,17.13
2022-10-04T18:23:27.402Z,16.92
2022-10-04T18:26:07.346Z,16.97
2022-10-04T18:28:34.789Z,16.93
2022-10-04T18:31:27.392Z,16.82
2022-10-04T18:33:54.263Z,16.81
2022-10-04T18:36:31.935Z,16.86
2022-10-04T18:39:21.951Z,16.82
2022-10-04T18:42:14.844Z,16.98
2022-10-04T18:44:57.234Z,17.45
2022-10-04T18:47:38.792Z,17.27
2022-10-04T18:50:36.361Z,17.24
2022-10-04T18:53:16.971Z,17.27
2022-10-04T18:55:49.477Z,17.28
2022-10-04T18:59:04.569Z,17.29
2022-10-04T19:02:04.004Z,17.28
2022-10-04T19:05:18.938Z,17.28
2022-10-04T19:07:58.528Z,17.30
2022-10-04T19:10:42.612Z,17.29
2022-10-04T19:13:42.328Z,17.29
2022-10-04T19:16:19.372Z,17.31
2022-10-04T19:19:02.603Z,17.28
2022-10-04T19:21:55.937Z,17.53
2022-10-04T19:25:07.631Z,17.42
2022-10-04T19:27:42.199Z,17.36
2022-10-04T19:30:20.825Z,17.38
2022-10-04T19:33:00.766Z,17.39
2022-10-04T19:35:44.790Z,17.37
2022-10-04T19:38:29.478Z,17.34
2022-10-04T19:41:02.002Z,17.34
2022-10-04T19:44:02.055Z,17.27
2022-10-04T19:46:46.249Z,17.34
2022-10-04T19:49:49.295Z,17.32
2022-10-04T19:52:27.040Z,17.29
2022-10-04T19:55:17.774Z,17.31
2022-10-04T19:57:49.441Z,17.29
2022-10-04T20:00:20.716Z,17.29
2022-10-04T20:02:48.867Z,17.18
2022-10-04T20:05:25.982Z,17.22
2022-10-04T20:07:57.388Z,17.22
2022-10-04T20:10:29.743Z,17.24
2022-10-04T20:13:13.415Z,17.25
2022-10-04T20:15:40.208Z,17.55
2022-10-04T20:18:31.967Z,17.38
2022-10-04T20:21:01.570Z,17.32
2022-10-04T20:23:56.672Z,17.28
2022-10-04T20:26:56.791Z,17.26
2022-10-04T20:29:52.280Z,17.24
2022-10-04T20:32:34.152Z,17.20
2022-10-04T20:35:02.450Z,17.09
2022-10-04T20:37:45.556Z,17.15
2022-10-04T20:40:34.846Z,17.13
2022-10-04T20:43:13.645Z,17.11
2022-10-04T20:45:50.279Z,17.12
2022-10-04T20:48:21.382Z,17.25
2022-10-04T20:50:49.796Z,16.97
2022-10-04T20:53:26.100Z,17.05
2022-10-04T20:56:11.831Z,17.13
2022-10-04T20:58:40.433Z,17.05
2022-10-04T21:01:33.892Z,17.12
2022-10-04T21:04:30.679Z,17.10
2022-10-04T21:06:59.877Z,17.10
2022-10-04T21:09:32.727Z,17.05
2022-10-04T21:12:03.018Z,17.05
2022-10-04T21:14:37.209Z,17.03
2022-10-04T21:17:28.369Z,17.01
2022-10-04T21:19:55.007Z,17.02
2022-10-04T21:22:30.535Z,17.01
2022-10-04T21:24:59.608Z,16.70
2022-10-04T21:27:34.066Z,17.01
2022-10-04T21:30:02.991Z,17.02
2022-10-04T21:32:34.924Z,17.00
2022-10-04T21:35:02.735Z,17.00
2022-10-04T21:37:30.143Z,17.00
2022-10-04T21:39:56.796Z,17.00
2022-10-04T21:42:23.446Z,16.95
2022-10-04T21:44:50.030Z,17.00
2022-10-04T21:47:17.218Z,16.85
2022-10-04T21:49:43.744Z,16.92
2022-10-04T21:52:12.716Z,16.94
2022-10-04T21:54:39.227Z,16.94
2022-10-04T21:57:05.835Z,16.89
2022-10-04T21:59:32.395Z,16.93
2022-10-04T22:01:59.002Z,16.92
2022-10-04T22:04:25.622Z,16.92
2022-10-04T22:06:52.196Z,16.85
2022-10-04T22:09:20.983Z,16.86
2022-10-04T22:11:47.553Z,16.90
2022-10-04T22:14:14.149Z,16.83
2022-10-04T22:16:40.751Z,16.88
2022-10-04T22:19:07.320Z,16.87
2022-10-04T22:21:34.036Z,16.89
2022-10-04T22:24:06.298Z,16.85
2022-10-04T22:26:32.846Z,16.87
2022-10-04T22:28:59.419Z,16.88
2022-10-04T22:31:28.753Z,16.78
2022-10-04T22:33:56.362Z,16.86
2022-10-04T22:36:40.152Z,16.85
2022-10-04T22:39:11.681Z,16.85
2022-10-04T22:41:42.327Z,16.84
2022-10-04T22:44:38.110Z,16.82
2022-10-04T22:47:10.709Z,16.82
2022-10-04T22:49:43.064Z,16.78
2022-10-04T22:52:15.349Z,16.79
2022-10-04T22:54:45.433Z,16.80
2022-10-04T22:57:14.343Z,16.80
2022-10-04T22:59:47.741Z,16.79
2022-10-04T23:02:24.126Z,16.79
2022-10-04T23:04:53.295Z,16.72
2022-10-04T23:07:20.248Z,16.76
2022-10-04T23:09:49.136Z,16.76
2022-10-04T23:12:15.700Z,16.74
2022-10-04T23:14:42.499Z,16.74
2022-10-04T23:17:28.852Z,16.74
2022-10-04T23:19:58.962Z,16.73
2022-10-04T23:22:30.782Z,16.57
2022-10-04T23:24:58.002Z,16.70
2022-10-04T23:27:24.720Z,16.70
2022-10-04T23:30:01.162Z,16.71
2022-10-04T23:32:27.995Z,16.69
2022-10-04T23:35:00.982Z,16.70
2022-10-04T23:37:36.426Z,16.66
2022-10-04T23:40:03.391Z,16.66
2022-10-04T23:42:33.616Z,16.64
2022-10-04T23:45:01.642Z,16.62
2022-10-04T23:47:37.831Z,16.64
2022-10-04T23:50:39.664Z,16.62
2022-10-04T23:53:16.000Z,16.59
2022-10-04T23:55:44.919Z,16.60
2022-10-04T23:58:20.699Z,16.58
